createdAt,value
2019-01-24T00:03:02.571Z,19.10
2019-01-24T00:06:30.841Z,17.97
2019-01-24T00:18:02.214Z,19.53
2019-01-24T00:27:14.106Z,17.13
2019-01-24T00:29:57.095Z,16.40
2019-01-24T00:33:16.775Z,16.63
2019-01-24T00:40:11.433Z,15.30
2019-01-24T00:46:41.005Z,16.10
2019-01-24T00:50:01.457Z,16.17
2019-01-24T00:53:07.821Z,16.80
2019-01-24T00:59:12.802Z,17.37
2019-01-24T01:06:11.770Z,15.67
2019-01-24T01:09:15.551Z,17.47
2019-01-24T01:12:39.247Z,16.83
2019-01-24T01:17:30.559Z,18.37
2019-01-24T01:25:26.280Z,16.77
2019-01-24T01:28:08.712Z,18.37
2019-01-24T01:31:57.003Z,17.73
2019-01-24T01:38:17.668Z,17.70
2019-01-24T01:40:27.422Z,17.67
2019-01-24T01:43:12.322Z,18.33
2019-01-24T01:46:28.216Z,19.80
2019-01-24T01:49:26.459Z,17.63
2019-01-24T01:52:47.974Z,17.60
2019-01-24T02:02:54.773Z,16.00
2019-01-24T02:08:55.412Z,14.93
2019-01-24T02:12:27.894Z,14.67
2019-01-24T02:18:11.298Z,17.17
2019-01-24T02:24:55.285Z,15.57
2019-01-24T02:30:08.878Z,15.83
2019-01-24T02:33:52.832Z,16.53
2019-01-24T02:37:34.624Z,13.90
2019-01-24T02:41:16.226Z,15.67
2019-01-24T02:47:21.974Z,14.93
2019-01-24T02:49:54.831Z,16.23
2019-01-24T02:55:03.340Z,15.63
2019-01-24T02:55:56.067Z,14.73
2019-01-24T02:59:01.989Z,15.87
2019-01-24T03:05:08.968Z,14.93
2019-01-24T03:07:48.631Z,15.37
2019-01-24T03:10:48.159Z,13.33
2019-01-24T03:13:36.282Z,14.23
2019-01-24T03:16:21.041Z,13.70
2019-01-24T03:19:11.116Z,14.37
2019-01-24T03:21:49.424Z,14.67
2019-01-24T03:24:35.231Z,14.67
2019-01-24T03:34:10.630Z,14.03
2019-01-24T03:37:29.372Z,12.33
2019-01-24T03:40:56.594Z,12.90
2019-01-24T03:47:02.920Z,13.07
2019-01-24T03:50:14.815Z,13.33
2019-01-24T03:53:40.612Z,12.80
2019-01-24T04:00:24.546Z,13.60
2019-01-24T04:03:12.747Z,13.30
2019-01-24T04:10:02.396Z,13.50
2019-01-24T04:12:11.907Z,13.73
2019-01-24T04:15:13.657Z,15.27
2019-01-24T04:18:19.272Z,13.80
2019-01-24T04:21:12.205Z,15.20
2019-01-24T04:24:21.634Z,14.07
2019-01-24T04:27:18.371Z,14.57
2019-01-24T04:31:10.512Z,13.73
2019-01-24T04:33:21.417Z,13.47
2019-01-24T04:37:50.596Z,13.60
2019-01-24T04:38:55.259Z,14.90
2019-01-24T04:41:53.243Z,13.40
2019-01-24T04:44:28.811Z,14.53
2019-01-24T04:47:20.613Z,13.50
2019-01-24T04:50:16.411Z,13.37
2019-01-24T04:53:01.391Z,14.83
2019-01-24T04:55:37.852Z,13.93
2019-01-24T04:58:08.698Z,12.83
2019-01-24T05:01:02.509Z,14.40
2019-01-24T05:07:46.336Z,12.47
2019-01-24T05:10:13.798Z,12.83
2019-01-24T05:13:14.067Z,12.93
2019-01-24T05:19:27.020Z,11.97
2019-01-24T05:22:19.276Z,13.17
2019-01-24T05:25:06.508Z,12.43
2019-01-24T05:32:05.414Z,13.07
2019-01-24T05:35:10.260Z,12.77
2019-01-24T05:48:21.952Z,14.93
2019-01-24T05:54:46.817Z,14.90
2019-01-24T05:57:53.943Z,12.77
2019-01-24T06:02:06.991Z,13.77
2019-01-24T06:04:18.958Z,13.70
2019-01-24T06:08:05.025Z,15.70
2019-01-24T06:10:29.393Z,14.13
2019-01-24T06:13:32.136Z,13.27
2019-01-24T06:19:45.479Z,14.33
2019-01-24T06:22:51.387Z,13.50
2019-01-24T06:25:46.472Z,14.17
2019-01-24T06:28:41.386Z,14.70
2019-01-24T06:31:32.988Z,14.80
2019-01-24T06:34:19.418Z,14.37
2019-01-24T06:37:22.290Z,14.57
2019-01-24T06:41:33.605Z,14.40
2019-01-24T06:44:00.283Z,17.17
2019-01-24T06:46:35.529Z,17.80
2019-01-24T06:49:43.104Z,15.73
2019-01-24T06:52:35.858Z,14.70
2019-01-24T06:55:41.079Z,15.63
2019-01-24T06:58:54.540Z,16.07
2019-01-24T07:01:52.676Z,14.27
2019-01-24T07:04:25.641Z,14.87
2019-01-24T07:07:27.114Z,17.07
2019-01-24T07:10:14.801Z,16.90
2019-01-24T07:13:01.416Z,16.83
2019-01-24T07:16:18.739Z,15.70
2019-01-24T07:18:51.335Z,16.53
2019-01-24T07:21:59.413Z,16.57
2019-01-24T07:24:56.477Z,15.30
2019-01-24T07:27:53.210Z,15.97
2019-01-24T07:31:06.430Z,16.60
2019-01-24T07:33:47.419Z,15.40
2019-01-24T07:36:48.516Z,16.37
2019-01-24T07:39:48.211Z,16.83
2019-01-24T07:42:32.964Z,16.77
2019-01-24T07:45:20.615Z,16.70
2019-01-24T07:47:57.593Z,17.40
2019-01-24T07:50:47.995Z,17.23
2019-01-24T07:53:46.092Z,19.70
2019-01-24T07:57:02.426Z,17.13
2019-01-24T08:03:01.953Z,17.60
2019-01-24T08:10:07.641Z,16.87
2019-01-24T08:12:17.580Z,16.63
2019-01-24T08:15:25.854Z,17.80
2019-01-24T08:18:36.702Z,18.13
2019-01-24T08:21:09.110Z,18.73
2019-01-24T08:23:52.445Z,17.47
2019-01-24T08:26:45.925Z,17.93
2019-01-24T08:29:32.956Z,17.27
2019-01-24T08:32:21.008Z,18.80
2019-01-24T08:41:58.336Z,18.73
2019-01-24T08:51:32.902Z,21.30
2019-01-24T08:54:25.783Z,18.13
2019-01-24T08:57:25.035Z,17.03
2019-01-24T09:00:16.422Z,17.20
2019-01-24T09:03:14.114Z,16.50
2019-01-24T09:06:34.614Z,15.50
2019-01-24T09:09:42.312Z,15.33
2019-01-24T09:12:59.931Z,15.20
2019-01-24T09:17:56.152Z,16.60
2019-01-24T09:20:28.856Z,16.30
2019-01-24T09:23:00.549Z,17.10
2019-01-24T09:25:34.023Z,17.77
2019-01-24T09:28:23.957Z,18.17
2019-01-24T09:30:55.673Z,16.63
2019-01-24T09:33:29.543Z,17.57
2019-01-24T09:36:00.042Z,19.07
2019-01-24T09:38:31.306Z,18.73
2019-01-24T09:41:03.965Z,18.13
2019-01-24T09:43:45.806Z,19.30
2019-01-24T09:46:25.590Z,19.53
2019-01-24T09:49:12.985Z,19.67
2019-01-24T09:52:06.124Z,20.20
2019-01-24T09:54:40.718Z,17.70
2019-01-24T09:57:48.667Z,20.07
2019-01-24T10:00:39.711Z,18.57
2019-01-24T10:03:22.319Z,18.33
2019-01-24T10:06:14.213Z,19.73
2019-01-24T10:12:11.973Z,18.07
2019-01-24T10:18:21.593Z,17.87
2019-01-24T10:24:57.258Z,18.17
2019-01-24T10:27:27.494Z,15.90
2019-01-24T10:33:39.863Z,17.20
2019-01-24T10:36:49.261Z,16.70
2019-01-24T10:47:19.692Z,17.10
2019-01-24T11:04:44.895Z,19.97
2019-01-24T11:20:44.025Z,23.03
2019-01-24T11:27:54.781Z,22.57
2019-01-24T11:39:41.242Z,20.30
2019-01-24T11:41:12.042Z,22.07
2019-01-24T11:55:28.245Z,21.60
2019-01-24T12:04:25.266Z,22.90
2019-01-24T12:17:58.651Z,23.30
2019-01-24T12:32:33.559Z,22.23
2019-01-24T12:39:48.151Z,21.63
2019-01-24T12:54:02.248Z,21.97
2019-01-24T12:59:59.929Z,24.37
2019-01-24T13:09:44.491Z,25.37
2019-01-24T13:13:08.066Z,22.07
2019-01-24T13:19:45.109Z,22.70
2019-01-24T13:29:07.946Z,22.53
2019-01-24T13:33:36.074Z,23.03
2019-01-24T13:39:55.422Z,21.67
2019-01-24T13:46:35.774Z,21.17
2019-01-24T13:50:31.129Z,21.53
2019-01-24T14:13:47.723Z,23.63
2019-01-24T14:17:55.230Z,20.40
2019-01-24T14:24:09.666Z,22.30
2019-01-24T14:27:17.490Z,22.53
2019-01-24T14:36:30.869Z,21.93
2019-01-24T14:52:17.785Z,22.20
2019-01-24T14:53:38.062Z,23.23
2019-01-24T14:57:07.167Z,23.07
2019-01-24T15:00:20.246Z,22.57
2019-01-24T15:08:54.146Z,22.93
2019-01-24T15:10:58.252Z,22.33
2019-01-24T15:25:04.969Z,22.50
2019-01-24T15:28:11.137Z,22.70
2019-01-24T15:31:30.966Z,21.37
2019-01-24T15:37:57.324Z,23.03
2019-01-24T15:47:12.438Z,21.70
2019-01-24T15:49:36.751Z,23.53
2019-01-24T15:52:41.718Z,23.17
2019-01-24T15:55:28.954Z,22.60
2019-01-24T15:58:16.104Z,22.47
2019-01-24T16:03:56.047Z,22.17
2019-01-24T16:06:58.237Z,22.30
2019-01-24T16:10:04.692Z,20.83
2019-01-24T16:16:09.056Z,21.97
2019-01-24T16:19:07.176Z,21.97
2019-01-24T16:21:56.959Z,22.23
2019-01-24T16:25:14.094Z,22.47
2019-01-24T16:28:24.487Z,21.70
2019-01-24T16:30:59.553Z,22.27
2019-01-24T16:33:35.547Z,23.37
2019-01-24T16:36:25.326Z,22.37
2019-01-24T16:39:14.473Z,22.77
2019-01-24T16:44:50.214Z,21.70
2019-01-24T16:47:34.950Z,23.10
2019-01-24T16:51:00.636Z,22.90
2019-01-24T16:53:59.179Z,22.60
2019-01-24T16:56:34.097Z,22.17
2019-01-24T16:59:22.943Z,23.60
2019-01-24T17:01:52.935Z,23.07
2019-01-24T17:04:25.814Z,21.60
2019-01-24T17:06:56.616Z,22.63
2019-01-24T17:09:36.493Z,22.83
2019-01-24T17:12:31.226Z,22.63
2019-01-24T17:15:19.843Z,22.07
2019-01-24T17:17:58.340Z,20.03
2019-01-24T17:20:47.747Z,24.50
2019-01-24T17:23:14.504Z,22.97
2019-01-24T17:25:52.789Z,24.63
2019-01-24T17:28:28.408Z,23.37
2019-01-24T17:31:03.728Z,22.77
2019-01-24T17:33:36.932Z,19.67
2019-01-24T17:36:09.316Z,22.77
2019-01-24T17:38:48.639Z,21.37
2019-01-24T17:41:26.983Z,22.40
2019-01-24T17:43:59.412Z,22.13
2019-01-24T17:46:31.118Z,21.50
2019-01-24T17:49:25.450Z,20.27
2019-01-24T17:52:01.759Z,21.70
2019-01-24T17:54:43.038Z,22.53
2019-01-24T17:57:30.866Z,23.13
2019-01-24T18:00:43.746Z,22.20
2019-01-24T18:03:29.864Z,21.80
2019-01-24T18:06:18.034Z,25.10
2019-01-24T18:08:56.234Z,25.00
2019-01-24T18:14:35.969Z,24.03
2019-01-24T18:17:24.376Z,24.77
2019-01-24T18:21:11.762Z,27.80
2019-01-24T18:23:10.824Z,27.20
2019-01-24T18:25:48.861Z,28.47
2019-01-24T18:28:24.005Z,28.83
2019-01-24T18:30:59.398Z,36.87
2019-01-24T18:33:37.181Z,38.23
2019-01-24T18:36:11.369Z,38.27
2019-01-24T18:38:58.130Z,40.10
2019-01-24T18:41:54.420Z,41.00
2019-01-24T18:44:31.629Z,41.40
2019-01-24T18:47:05.491Z,37.87
2019-01-24T18:49:46.679Z,40.73
2019-01-24T18:52:41.706Z,36.50
2019-01-24T18:55:18.302Z,35.60
2019-01-24T19:01:30.961Z,36.70
2019-01-24T19:04:15.043Z,34.60
2019-01-24T19:06:50.387Z,33.20
2019-01-24T19:09:28.152Z,34.33
2019-01-24T19:12:00.332Z,35.90
2019-01-24T19:14:34.527Z,32.77
2019-01-24T19:17:08.249Z,34.43
2019-01-24T19:19:53.502Z,33.90
2019-01-24T19:22:23.583Z,30.97
2019-01-24T19:25:00.450Z,31.83
2019-01-24T19:27:31.487Z,31.70
2019-01-24T19:30:02.617Z,33.40
2019-01-24T19:32:34.167Z,34.77
2019-01-24T19:35:07.923Z,33.20
2019-01-24T19:37:47.004Z,36.20
2019-01-24T19:40:22.961Z,34.27
2019-01-24T19:43:02.922Z,33.10
2019-01-24T19:45:41.639Z,36.23
2019-01-24T19:48:15.862Z,35.20
2019-01-24T19:50:57.039Z,33.03
2019-01-24T19:53:37.292Z,32.97
2019-01-24T19:56:20.190Z,34.00
2019-01-24T19:58:49.470Z,33.93
2019-01-24T20:01:25.652Z,32.70
2019-01-24T20:04:00.099Z,35.20
2019-01-24T20:06:33.070Z,35.30
2019-01-24T20:09:08.034Z,37.57
2019-01-24T20:11:54.295Z,34.60
2019-01-24T20:14:31.388Z,35.30
2019-01-24T20:17:24.262Z,35.17
2019-01-24T20:20:06.094Z,34.43
2019-01-24T20:22:37.742Z,35.30
2019-01-24T20:25:16.528Z,32.33
2019-01-24T20:27:48.737Z,33.40
2019-01-24T20:30:25.330Z,33.40
2019-01-24T20:33:02.318Z,31.67
2019-01-24T20:35:56.248Z,32.50
2019-01-24T20:38:30.911Z,32.37
2019-01-24T20:41:24.225Z,31.67
2019-01-24T20:43:59.527Z,30.17
2019-01-24T20:46:40.555Z,29.73
2019-01-24T20:49:35.219Z,31.97
2019-01-24T20:52:13.252Z,30.43
2019-01-24T20:54:45.492Z,31.63
2019-01-24T20:57:16.744Z,32.83
2019-01-24T21:00:13.359Z,33.00
2019-01-24T21:02:58.254Z,33.03
2019-01-24T21:05:36.893Z,31.30
2019-01-24T21:08:08.831Z,31.90
2019-01-24T21:10:45.503Z,33.47
2019-01-24T21:13:27.159Z,31.43
2019-01-24T21:16:04.755Z,33.07
2019-01-24T21:18:46.045Z,34.40
2019-01-24T21:21:39.162Z,33.07
2019-01-24T21:24:12.828Z,31.17
2019-01-24T21:26:49.709Z,31.47
2019-01-24T21:29:36.853Z,29.03
2019-01-24T21:32:59.714Z,30.97
2019-01-24T21:39:22.164Z,29.40
2019-01-24T21:41:56.252Z,29.77
2019-01-24T21:56:53.315Z,29.33
2019-01-24T22:16:55.234Z,25.13
2019-01-24T22:20:58.046Z,25.20
2019-01-24T22:43:34.469Z,22.67
2019-01-24T22:47:13.852Z,22.23
2019-01-24T22:50:14.123Z,20.63
2019-01-24T22:52:51.506Z,23.50
2019-01-24T22:55:54.856Z,23.37
2019-01-24T22:58:48.342Z,23.57
2019-01-24T23:02:46.309Z,23.53
2019-01-24T23:05:50.585Z,23.50
2019-01-24T23:08:19.003Z,22.53
2019-01-24T23:11:11.375Z,23.77
2019-01-24T23:14:27.794Z,25.10
2019-01-24T23:17:14.225Z,24.70
2019-01-24T23:20:12.586Z,26.10
2019-01-24T23:23:20.566Z,27.70
2019-01-24T23:32:48.765Z,29.53
2019-01-24T23:35:34.154Z,28.80
2019-01-24T23:38:54.506Z,28.57
2019-01-24T23:41:59.678Z,32.77
2019-01-24T23:45:24.316Z,32.33
2019-01-24T23:48:25.319Z,33.07
2019-01-24T23:51:16.512Z,28.83
2019-01-24T23:54:21.137Z,30.10
2019-01-24T23:57:12.635Z,29.60
